createdAt,value
2022-10-22T00:00:43.940Z,72.05
2022-10-22T00:03:11.818Z,71.94
2022-10-22T00:05:39.392Z,72.02
2022-10-22T00:08:06.788Z,72.62
2022-10-22T00:10:34.507Z,72.40
2022-10-22T00:13:01.956Z,72.40
2022-10-22T00:15:29.330Z,72.38
2022-10-22T00:17:56.988Z,72.59
2022-10-22T00:20:24.307Z,72.62
2022-10-22T00:25:24.330Z,73.08
2022-10-22T00:27:52.000Z,73.00
2022-10-22T00:30:19.484Z,72.97
2022-10-22T00:32:47.128Z,73.56
2022-10-22T00:35:14.463Z,73.32
2022-10-22T00:37:41.843Z,73.55
2022-10-22T00:40:10.446Z,73.47
2022-10-22T00:42:38.586Z,73.85
2022-10-22T00:45:14.041Z,73.83
2022-10-22T00:47:59.533Z,74.14
2022-10-22T00:50:32.574Z,74.34
2022-10-22T00:53:01.479Z,74.36
2022-10-22T00:55:29.989Z,74.31
2022-10-22T00:57:58.429Z,74.20
2022-10-22T01:00:27.039Z,74.37
2022-10-22T01:02:55.329Z,74.39
2022-10-22T01:05:23.254Z,74.66
2022-10-22T01:07:52.892Z,74.73
2022-10-22T01:10:20.205Z,74.67
2022-10-22T01:13:03.163Z,74.71
2022-10-22T01:15:36.776Z,74.77
2022-10-22T01:18:22.954Z,74.53
2022-10-22T01:21:10.702Z,74.48
2022-10-22T01:23:56.952Z,74.71
2022-10-22T01:26:42.641Z,74.59
2022-10-22T01:29:17.907Z,74.55
2022-10-22T01:31:59.833Z,74.49
2022-10-22T01:34:29.936Z,74.63
2022-10-22T01:36:59.203Z,74.58
2022-10-22T01:39:29.429Z,74.79
2022-10-22T01:41:57.340Z,74.76
2022-10-22T01:44:33.668Z,74.78
2022-10-22T01:47:31.767Z,75.17
2022-10-22T01:50:14.399Z,75.27
2022-10-22T01:53:01.720Z,75.33
2022-10-22T01:55:58.764Z,75.61
2022-10-22T01:59:08.190Z,75.45
2022-10-22T02:01:54.813Z,75.58
2022-10-22T02:04:55.739Z,75.79
2022-10-22T02:07:28.792Z,75.77
2022-10-22T02:09:58.039Z,75.86
2022-10-22T02:12:28.078Z,75.90
2022-10-22T02:14:57.460Z,76.03
2022-10-22T02:17:29.077Z,76.08
2022-10-22T02:20:01.001Z,76.21
2022-10-22T02:22:28.948Z,76.34
2022-10-22T02:24:56.773Z,76.46
2022-10-22T02:27:26.747Z,76.56
2022-10-22T02:30:01.926Z,76.63
2022-10-22T02:32:36.260Z,76.86
2022-10-22T02:35:05.581Z,76.85
2022-10-22T02:37:33.905Z,76.98
2022-10-22T02:40:01.465Z,77.04
2022-10-22T02:42:29.928Z,77.24
2022-10-22T02:44:57.664Z,77.47
2022-10-22T02:47:25.036Z,77.65
2022-10-22T02:49:52.403Z,77.63
2022-10-22T02:52:20.085Z,77.64
2022-10-22T02:54:47.559Z,77.97
2022-10-22T02:57:15.109Z,77.89
2022-10-22T02:59:43.073Z,77.88
2022-10-22T03:02:10.488Z,77.98
2022-10-22T03:04:37.874Z,78.23
2022-10-22T03:07:05.540Z,77.99
2022-10-22T03:09:32.940Z,78.05
2022-10-22T03:12:00.332Z,78.27
2022-10-22T03:14:27.952Z,78.44
2022-10-22T03:16:55.288Z,78.20
2022-10-22T03:19:22.709Z,78.22
2022-10-22T03:21:55.668Z,78.43
2022-10-22T03:24:28.724Z,78.56
2022-10-22T03:26:56.680Z,78.56
2022-10-22T03:29:27.212Z,78.46
2022-10-22T03:31:55.189Z,78.67
2022-10-22T03:34:23.220Z,78.69
2022-10-22T03:36:51.919Z,78.80
2022-10-22T03:39:20.205Z,78.87
2022-10-22T03:41:50.122Z,79.00
2022-10-22T03:44:18.216Z,79.02
2022-10-22T03:46:45.535Z,79.12
2022-10-22T03:49:13.313Z,79.37
2022-10-22T03:51:40.928Z,79.39
2022-10-22T03:54:08.319Z,79.56
2022-10-22T03:56:36.063Z,79.50
2022-10-22T03:59:04.429Z,79.71
2022-10-22T04:01:32.179Z,79.82
2022-10-22T04:03:59.989Z,79.95
2022-10-22T04:06:30.132Z,80.15
2022-10-22T04:08:59.151Z,80.34
2022-10-22T04:11:26.832Z,80.44
2022-10-22T04:13:54.184Z,80.37
2022-10-22T04:16:25.069Z,80.58
2022-10-22T04:18:55.141Z,80.68
2022-10-22T04:21:23.021Z,80.72
2022-10-22T04:23:52.404Z,80.85
2022-10-22T04:26:20.952Z,80.99
2022-10-22T04:28:49.715Z,81.21
2022-10-22T04:31:19.336Z,81.45
2022-10-22T04:33:47.349Z,81.53
2022-10-22T04:36:17.845Z,81.64
2022-10-22T04:38:48.218Z,81.67
2022-10-22T04:41:22.372Z,81.56
2022-10-22T04:43:49.856Z,81.67
2022-10-22T04:46:18.693Z,81.56
2022-10-22T04:48:47.048Z,81.79
2022-10-22T04:51:17.355Z,81.60
2022-10-22T04:53:45.564Z,81.55
2022-10-22T04:56:16.583Z,81.66
2022-10-22T04:58:44.180Z,81.58
2022-10-22T05:01:13.855Z,81.79
2022-10-22T05:03:41.956Z,81.85
2022-10-22T05:06:09.853Z,82.12
2022-10-22T05:08:37.919Z,82.14
2022-10-22T05:11:19.420Z,82.18
2022-10-22T05:13:47.569Z,82.44
2022-10-22T05:16:15.412Z,82.59
2022-10-22T05:18:44.244Z,82.53
2022-10-22T05:21:15.291Z,82.47
2022-10-22T05:23:44.296Z,82.40
2022-10-22T05:26:14.032Z,82.22
2022-10-22T05:28:41.526Z,82.35
2022-10-22T05:31:11.828Z,82.29
2022-10-22T05:33:40.315Z,82.40
2022-10-22T05:36:10.752Z,82.08
2022-10-22T05:38:38.192Z,81.91
2022-10-22T05:41:08.889Z,81.69
2022-10-22T05:43:37.096Z,81.41
2022-10-22T05:46:18.762Z,81.03
2022-10-22T05:48:54.461Z,80.79
2022-10-22T05:51:22.191Z,80.65
2022-10-22T05:53:55.648Z,80.34
2022-10-22T05:56:23.496Z,80.15
2022-10-22T05:58:51.516Z,79.77
2022-10-22T06:01:21.787Z,79.65
2022-10-22T06:03:49.981Z,79.50
2022-10-22T06:06:21.962Z,79.23
2022-10-22T06:08:51.944Z,78.66
2022-10-22T06:11:22.216Z,78.43
2022-10-22T06:13:51.328Z,78.21
2022-10-22T06:16:18.989Z,77.84
2022-10-22T06:18:46.397Z,77.70
2022-10-22T06:21:16.408Z,77.37
2022-10-22T06:23:44.283Z,77.33
2022-10-22T06:26:12.086Z,77.15
2022-10-22T06:28:39.860Z,76.68
2022-10-22T06:31:07.321Z,76.67
2022-10-22T06:33:37.192Z,76.17
2022-10-22T06:36:10.069Z,75.62
2022-10-22T06:38:38.272Z,75.59
2022-10-22T06:41:11.100Z,75.28
2022-10-22T06:43:38.882Z,74.99
2022-10-22T06:46:09.664Z,74.76
2022-10-22T06:48:40.302Z,74.83
2022-10-22T06:51:12.097Z,74.59
2022-10-22T06:53:40.615Z,74.47
2022-10-22T06:56:13.544Z,74.28
2022-10-22T06:58:41.453Z,74.20
2022-10-22T07:01:14.622Z,73.78
2022-10-22T07:03:42.544Z,73.22
2022-10-22T07:06:13.021Z,72.81
2022-10-22T07:08:42.244Z,72.07
2022-10-22T07:11:15.461Z,71.63
2022-10-22T07:13:43.079Z,71.38
2022-10-22T07:16:11.748Z,71.29
2022-10-22T07:18:40.348Z,71.26
2022-10-22T07:21:09.882Z,70.93
2022-10-22T07:23:37.819Z,70.50
2022-10-22T07:26:07.531Z,70.49
2022-10-22T07:28:37.944Z,70.43
2022-10-22T07:31:06.700Z,69.85
2022-10-22T07:33:34.729Z,70.05
2022-10-22T07:36:04.853Z,69.94
2022-10-22T07:38:32.720Z,69.53
2022-10-22T07:41:00.499Z,69.64
2022-10-22T07:43:28.049Z,69.34
2022-10-22T07:45:55.953Z,67.96
2022-10-22T07:48:23.936Z,68.17
2022-10-22T07:50:51.872Z,68.18
2022-10-22T07:53:21.207Z,67.91
2022-10-22T07:55:50.068Z,68.20
2022-10-22T07:58:21.479Z,68.29
2022-10-22T08:00:50.696Z,68.31
2022-10-22T08:03:18.620Z,68.01
2022-10-22T08:05:46.445Z,68.11
2022-10-22T08:08:15.324Z,68.06
2022-10-22T08:10:43.584Z,67.78
2022-10-22T08:13:11.260Z,67.35
2022-10-22T08:15:38.953Z,67.21
2022-10-22T08:18:06.700Z,66.94
2022-10-22T08:20:34.413Z,66.60
2022-10-22T08:23:02.019Z,66.50
2022-10-22T08:25:29.991Z,66.32
2022-10-22T08:27:57.690Z,66.01
2022-10-22T08:30:27.708Z,65.61
2022-10-22T08:32:55.988Z,65.69
2022-10-22T08:35:23.501Z,65.74
2022-10-22T08:37:51.057Z,65.71
2022-10-22T08:40:30.427Z,65.65
2022-10-22T08:43:03.693Z,65.71
2022-10-22T08:45:57.248Z,64.65
2022-10-22T08:48:53.641Z,63.23
2022-10-22T08:51:34.695Z,62.50
2022-10-22T08:54:22.658Z,61.98
2022-10-22T08:57:08.996Z,62.29
2022-10-22T08:59:59.637Z,61.68
2022-10-22T09:02:56.156Z,61.21
2022-10-22T09:05:44.917Z,61.70
2022-10-22T09:08:15.117Z,61.20
2022-10-22T09:10:49.812Z,61.25
2022-10-22T09:13:20.614Z,59.82
2022-10-22T09:15:55.001Z,58.30
2022-10-22T09:18:33.507Z,57.44
2022-10-22T09:21:22.903Z,57.33
2022-10-22T09:24:11.912Z,57.44
2022-10-22T09:26:41.041Z,57.08
2022-10-22T09:29:19.624Z,55.13
2022-10-22T09:31:47.419Z,52.57
2022-10-22T09:34:20.454Z,53.20
2022-10-22T09:36:47.821Z,50.89
2022-10-22T09:39:25.315Z,51.32
2022-10-22T09:41:52.693Z,50.46
2022-10-22T09:44:20.690Z,49.77
2022-10-22T09:46:48.152Z,49.85
2022-10-22T09:49:18.517Z,49.60
2022-10-22T09:51:58.648Z,50.50
2022-10-22T09:54:39.073Z,50.22
2022-10-22T09:57:18.945Z,48.21
2022-10-22T09:59:49.824Z,48.60
2022-10-22T10:02:38.566Z,48.40
2022-10-22T10:05:08.056Z,47.91
2022-10-22T10:07:36.396Z,47.91
2022-10-22T10:10:19.452Z,47.02
2022-10-22T10:13:00.573Z,46.80
2022-10-22T10:16:03.260Z,46.69
2022-10-22T10:18:58.648Z,46.04
2022-10-22T10:21:45.186Z,45.37
2022-10-22T10:24:51.811Z,46.20
2022-10-22T10:27:40.788Z,46.64
2022-10-22T10:30:20.658Z,47.93
2022-10-22T10:32:54.497Z,47.64
2022-10-22T10:35:50.340Z,48.08
2022-10-22T10:38:40.858Z,47.59
2022-10-22T10:41:40.741Z,47.68
2022-10-22T10:44:59.959Z,46.86
2022-10-22T10:47:46.084Z,46.06
2022-10-22T10:50:24.353Z,46.22
2022-10-22T10:53:22.416Z,44.55
2022-10-22T10:55:52.667Z,44.23
2022-10-22T10:58:41.551Z,43.53
2022-10-22T11:01:36.426Z,42.96
2022-10-22T11:04:22.726Z,42.79
2022-10-22T11:07:10.663Z,42.90
2022-10-22T11:09:56.245Z,41.13
2022-10-22T11:12:39.681Z,41.43
2022-10-22T11:15:32.211Z,40.55
2022-10-22T11:18:07.497Z,40.41
2022-10-22T11:20:47.737Z,41.15
2022-10-22T11:23:43.524Z,39.94
2022-10-22T11:26:19.185Z,38.20
2022-10-22T11:28:53.387Z,37.90
2022-10-22T11:31:24.815Z,37.56
2022-10-22T11:34:09.833Z,37.33
2022-10-22T11:36:50.373Z,35.68
2022-10-22T11:39:35.247Z,34.42
2022-10-22T11:42:10.128Z,34.89
2022-10-22T11:45:03.410Z,34.99
2022-10-22T11:48:06.028Z,35.34
2022-10-22T11:51:00.865Z,35.05
2022-10-22T11:53:36.361Z,35.28
2022-10-22T11:56:24.320Z,36.31
2022-10-22T11:58:55.078Z,35.77
2022-10-22T12:01:25.890Z,36.55
2022-10-22T12:04:22.174Z,36.02
2022-10-22T12:07:29.755Z,36.38
2022-10-22T12:09:58.458Z,35.70
2022-10-22T12:12:28.742Z,34.36
2022-10-22T12:14:59.623Z,34.22
2022-10-22T12:17:28.764Z,35.34
2022-10-22T12:20:12.277Z,34.68
2022-10-22T12:22:40.603Z,34.23
2022-10-22T12:25:38.163Z,33.89
2022-10-22T12:28:12.268Z,33.88
2022-10-22T12:30:39.615Z,33.92
2022-10-22T12:33:18.724Z,34.59
2022-10-22T12:35:47.810Z,35.21
2022-10-22T12:38:18.360Z,35.75
2022-10-22T12:40:48.633Z,36.44
2022-10-22T12:43:20.151Z,36.96
2022-10-22T12:45:50.587Z,37.47
2022-10-22T12:48:28.239Z,37.46
2022-10-22T12:50:59.447Z,38.08
2022-10-22T12:53:35.209Z,38.87
2022-10-22T12:56:05.505Z,39.18
2022-10-22T12:58:39.778Z,39.78
2022-10-22T13:01:09.799Z,40.41
2022-10-22T13:03:44.972Z,40.18
2022-10-22T13:06:18.784Z,40.33
2022-10-22T13:09:27.918Z,40.59
2022-10-22T13:12:04.811Z,40.47
2022-10-22T13:14:35.975Z,40.47
2022-10-22T13:17:11.277Z,40.42
2022-10-22T13:20:05.340Z,40.03
2022-10-22T13:22:38.427Z,40.29
2022-10-22T13:25:28.097Z,40.47
2022-10-22T13:27:59.152Z,40.17
2022-10-22T13:30:31.641Z,40.39
2022-10-22T13:33:05.173Z,40.85
2022-10-22T13:35:37.514Z,41.40
2022-10-22T13:38:17.520Z,41.79
2022-10-22T13:40:45.448Z,42.15
2022-10-22T13:43:12.919Z,42.48
2022-10-22T13:45:40.509Z,42.68
2022-10-22T13:48:13.167Z,42.88
2022-10-22T13:50:41.057Z,43.27
2022-10-22T13:53:30.257Z,43.40
2022-10-22T13:55:57.938Z,44.15
2022-10-22T13:58:25.728Z,44.31
2022-10-22T14:00:59.442Z,44.77
2022-10-22T14:03:31.516Z,44.77
2022-10-22T14:05:59.057Z,45.47
2022-10-22T14:08:28.059Z,45.44
2022-10-22T14:10:55.597Z,45.43
2022-10-22T14:13:23.012Z,45.60
2022-10-22T14:15:52.183Z,45.73
2022-10-22T14:18:26.304Z,45.70
2022-10-22T14:20:56.856Z,45.52
2022-10-22T14:23:29.529Z,45.44
2022-10-22T14:25:58.907Z,45.45
2022-10-22T14:28:26.465Z,45.57
2022-10-22T14:30:54.687Z,45.58
2022-10-22T14:33:31.565Z,45.58
2022-10-22T14:36:00.987Z,45.43
2022-10-22T14:38:29.448Z,45.69
2022-10-22T14:40:59.523Z,45.72
2022-10-22T14:43:29.278Z,45.65
2022-10-22T14:45:57.311Z,45.75
2022-10-22T14:48:24.941Z,45.73
2022-10-22T14:50:52.583Z,46.12
2022-10-22T14:53:20.551Z,46.37
2022-10-22T14:55:49.160Z,46.38
2022-10-22T14:58:16.806Z,46.68
2022-10-22T15:00:44.646Z,47.55
2022-10-22T15:03:12.315Z,48.26
2022-10-22T15:05:44.790Z,50.15
2022-10-22T15:08:14.420Z,50.61
2022-10-22T15:10:42.172Z,50.32
2022-10-22T15:13:09.933Z,51.14
2022-10-22T15:15:40.507Z,52.11
2022-10-22T15:18:07.972Z,52.70
2022-10-22T15:20:35.494Z,53.25
2022-10-22T15:23:03.291Z,54.10
2022-10-22T15:25:30.804Z,55.34
2022-10-22T15:28:01.815Z,56.34
2022-10-22T15:30:32.628Z,57.92
2022-10-22T15:33:00.185Z,58.35
2022-10-22T15:35:28.508Z,59.35
2022-10-22T15:37:56.439Z,60.77
2022-10-22T15:40:23.824Z,61.93
2022-10-22T15:42:51.248Z,62.59
2022-10-22T15:45:21.270Z,63.69
2022-10-22T15:47:49.268Z,64.28
2022-10-22T15:50:17.243Z,64.81
2022-10-22T15:52:44.941Z,65.58
2022-10-22T15:57:45.649Z,67.11
2022-10-22T16:00:13.880Z,67.58
2022-10-22T16:02:42.951Z,68.04
2022-10-22T16:05:10.323Z,68.29
2022-10-22T16:07:37.763Z,67.98
2022-10-22T16:10:07.604Z,67.85
2022-10-22T16:12:36.034Z,67.41
2022-10-22T16:15:03.712Z,66.57
2022-10-22T16:17:31.370Z,66.67
2022-10-22T16:19:58.841Z,66.37
2022-10-22T16:22:26.336Z,66.11
2022-10-22T16:24:53.966Z,66.24
2022-10-22T16:27:21.466Z,66.16
2022-10-22T16:29:48.949Z,65.42
2022-10-22T16:32:17.822Z,64.86
2022-10-22T16:34:45.383Z,64.82
2022-10-22T16:37:12.893Z,65.18
2022-10-22T16:39:40.609Z,65.21
2022-10-22T16:42:08.100Z,65.48
2022-10-22T16:44:35.501Z,65.77
2022-10-22T16:47:03.411Z,66.15
2022-10-22T16:49:31.016Z,66.36
2022-10-22T16:51:58.623Z,66.49
2022-10-22T16:54:26.506Z,66.91
2022-10-22T16:56:53.887Z,67.07
2022-10-22T16:59:21.328Z,67.01
2022-10-22T17:01:49.335Z,67.19
2022-10-22T17:04:19.697Z,67.45
2022-10-22T17:06:47.203Z,67.45
2022-10-22T17:09:15.891Z,67.70
2022-10-22T17:11:44.921Z,67.96
2022-10-22T17:14:12.688Z,68.00
2022-10-22T17:16:40.669Z,68.14
2022-10-22T17:19:08.307Z,68.50
2022-10-22T17:21:35.934Z,68.78
2022-10-22T17:24:04.101Z,69.16
2022-10-22T17:26:34.366Z,69.41
2022-10-22T17:29:01.997Z,69.59
2022-10-22T17:31:37.343Z,69.94
2022-10-22T17:34:10.964Z,69.99
2022-10-22T17:36:39.098Z,70.23
2022-10-22T17:39:07.859Z,70.40
2022-10-22T17:41:37.061Z,70.68
2022-10-22T17:44:09.078Z,70.77
2022-10-22T17:46:37.625Z,72.55
2022-10-22T17:49:12.205Z,75.34
2022-10-22T17:51:39.556Z,78.01
2022-10-22T17:54:09.815Z,79.46
2022-10-22T17:56:40.240Z,80.95
2022-10-22T17:59:10.764Z,82.90
2022-10-22T18:01:43.388Z,84.69
2022-10-22T18:04:14.411Z,85.30
2022-10-22T18:06:42.064Z,86.91
2022-10-22T18:09:13.334Z,87.88
2022-10-22T18:11:44.088Z,88.70
2022-10-22T18:14:12.027Z,89.20
2022-10-22T18:16:39.775Z,89.86
2022-10-22T18:19:07.651Z,91.60
2022-10-22T18:21:35.425Z,92.64
2022-10-22T18:24:03.088Z,93.05
2022-10-22T18:26:30.927Z,93.82
2022-10-22T18:28:59.171Z,94.46
2022-10-22T18:31:28.088Z,95.37
2022-10-22T18:33:56.453Z,95.86
2022-10-22T18:36:26.616Z,96.67
2022-10-22T18:38:56.980Z,97.85
2022-10-22T18:41:25.789Z,98.29
2022-10-22T18:43:55.656Z,98.65
2022-10-22T18:46:24.159Z,98.91
2022-10-22T18:48:54.617Z,99.32
2022-10-22T18:51:24.170Z,99.73
2022-10-22T18:54:05.097Z,99.76
2022-10-22T18:56:40.621Z,100.00
2022-10-22T18:59:16.698Z,100.00
2022-10-22T19:01:44.579Z,100.00
2022-10-22T19:04:13.661Z,100.00
2022-10-22T19:06:45.314Z,100.00
2022-10-22T19:09:15.320Z,100.00
2022-10-22T19:11:45.340Z,100.00
2022-10-22T19:14:14.721Z,100.00
2022-10-22T19:16:42.274Z,100.00
2022-10-22T19:19:11.116Z,100.00
2022-10-22T19:21:38.822Z,100.00
2022-10-22T19:24:06.874Z,100.00
2022-10-22T19:26:34.573Z,100.00
2022-10-22T19:29:03.196Z,100.00
2022-10-22T19:31:31.513Z,100.00
2022-10-22T19:34:01.260Z,100.00
2022-10-22T19:36:31.063Z,100.00
2022-10-22T19:38:59.328Z,100.00
2022-10-22T19:41:29.361Z,100.00
2022-10-22T19:43:58.634Z,100.00
2022-10-22T19:46:28.161Z,100.00
2022-10-22T19:48:57.332Z,100.00
2022-10-22T19:51:29.835Z,100.00
2022-10-22T19:54:03.581Z,100.00
2022-10-22T19:56:34.426Z,100.00
2022-10-22T19:59:03.458Z,100.00
2022-10-22T20:01:32.040Z,100.00
2022-10-22T20:04:01.402Z,100.00
2022-10-22T20:06:30.227Z,100.00
2022-10-22T20:08:58.265Z,100.00
2022-10-22T20:11:29.738Z,100.00
2022-10-22T20:13:58.267Z,100.00
2022-10-22T20:16:29.632Z,100.00
2022-10-22T20:19:02.389Z,100.00
2022-10-22T20:21:30.719Z,100.00
2022-10-22T20:23:58.736Z,100.00
2022-10-22T20:26:28.274Z,100.00
2022-10-22T20:28:57.255Z,100.00
2022-10-22T20:31:28.363Z,100.00
2022-10-22T20:33:58.896Z,100.00
2022-10-22T20:36:27.623Z,100.00
2022-10-22T20:38:59.813Z,100.00
2022-10-22T20:41:28.457Z,100.00
2022-10-22T20:43:56.399Z,100.00
2022-10-22T20:46:34.105Z,100.00
2022-10-22T20:49:05.660Z,100.00
2022-10-22T20:51:35.335Z,100.00
2022-10-22T20:54:07.275Z,100.00
2022-10-22T20:56:36.502Z,100.00
2022-10-22T20:59:05.334Z,100.00
2022-10-22T21:01:37.906Z,100.00
2022-10-22T21:04:06.427Z,100.00
2022-10-22T21:06:34.263Z,100.00
2022-10-22T21:09:01.770Z,100.00
2022-10-22T21:11:29.583Z,100.00
2022-10-22T21:13:57.223Z,100.00
2022-10-22T21:16:24.817Z,100.00
2022-10-22T21:18:52.533Z,100.00
2022-10-22T21:21:20.095Z,100.00
2022-10-22T21:23:47.648Z,100.00
2022-10-22T21:26:15.399Z,100.00
2022-10-22T21:28:42.860Z,100.00
2022-10-22T21:31:18.585Z,100.00
2022-10-22T21:33:46.281Z,100.00
2022-10-22T21:36:13.731Z,100.00
2022-10-22T21:38:41.255Z,100.00
2022-10-22T21:41:11.688Z,100.00
2022-10-22T21:43:40.368Z,100.00
2022-10-22T21:46:10.457Z,100.00
2022-10-22T21:48:40.303Z,100.00
2022-10-22T21:51:10.345Z,100.00
2022-10-22T21:53:39.048Z,100.00
2022-10-22T21:56:07.726Z,100.00
2022-10-22T21:58:35.933Z,100.00
2022-10-22T22:01:03.779Z,100.00
2022-10-22T22:03:31.517Z,100.00
2022-10-22T22:06:06.396Z,100.00
2022-10-22T22:08:34.195Z,100.00
2022-10-22T22:11:08.042Z,100.00
2022-10-22T22:13:35.840Z,100.00
2022-10-22T22:16:08.736Z,100.00
2022-10-22T22:18:37.158Z,100.00
2022-10-22T22:21:07.165Z,100.00
2022-10-22T22:23:37.463Z,100.00
2022-10-22T22:26:05.368Z,100.00
2022-10-22T22:28:34.089Z,100.00
2022-10-22T22:31:02.088Z,100.00
2022-10-22T22:33:29.746Z,100.00
2022-10-22T22:36:00.117Z,100.00
2022-10-22T22:38:27.507Z,100.00
2022-10-22T22:40:55.215Z,100.00
2022-10-22T22:43:22.604Z,100.00
2022-10-22T22:46:02.339Z,100.00
2022-10-22T22:48:30.784Z,100.00
2022-10-22T22:51:00.052Z,100.00
2022-10-22T22:53:28.567Z,100.00
2022-10-22T22:56:08.207Z,100.00
2022-10-22T22:58:36.787Z,100.00
2022-10-22T23:01:15.027Z,100.00
2022-10-22T23:03:44.353Z,100.00
2022-10-22T23:06:13.477Z,100.00
2022-10-22T23:08:42.338Z,100.00
2022-10-22T23:11:14.062Z,100.00
2022-10-22T23:13:43.156Z,100.00
2022-10-22T23:16:16.009Z,100.00
2022-10-22T23:18:45.668Z,100.00
2022-10-22T23:21:16.876Z,100.00
2022-10-22T23:23:46.148Z,100.00
2022-10-22T23:26:15.420Z,100.00
2022-10-22T23:28:43.198Z,100.00
2022-10-22T23:31:13.691Z,100.00
2022-10-22T23:33:42.287Z,100.00
2022-10-22T23:36:10.500Z,100.00
2022-10-22T23:38:39.698Z,100.00
2022-10-22T23:41:07.960Z,100.00
2022-10-22T23:43:36.576Z,100.00
2022-10-22T23:46:05.807Z,100.00
2022-10-22T23:48:33.333Z,100.00
2022-10-22T23:51:09.096Z,100.00
2022-10-22T23:53:37.037Z,100.00
2022-10-22T23:56:07.202Z,100.00
2022-10-22T23:58:35.251Z,100.00
